sensor_id;sensor_type;location;lat;lon;timestamp;temperature;humidity
16172;DHT22;8192;53.596;10.166;2024-03-08T00:00:59;0.40;99.90
16172;DHT22;8192;53.596;10.166;2024-03-08T00:03:26;0.40;99.90
16172;DHT22;8192;53.596;10.166;2024-03-08T00:05:56;0.60;99.90
16172;DHT22;8192;53.596;10.166;2024-03-08T00:08:23;0.60;99.90
16172;DHT22;8192;53.596;10.166;2024-03-08T00:10:50;0.60;99.90
16172;DHT22;8192;53.596;10.166;2024-03-08T00:13:17;0.60;99.90
16172;DHT22;8192;53.596;10.166;2024-03-08T00:15:44;0.50;99.90
16172;DHT22;8192;53.596;10.166;2024-03-08T00:18:11;0.50;99.90
16172;DHT22;8192;53.596;10.166;2024-03-08T00:20:38;0.40;99.90
16172;DHT22;8192;53.596;10.166;2024-03-08T00:23:06;0.50;99.90
16172;DHT22;8192;53.596;10.166;2024-03-08T00:25:34;0.40;99.90
16172;DHT22;8192;53.596;10.166;2024-03-08T00:28:01;0.30;99.90
16172;DHT22;8192;53.596;10.166;2024-03-08T00:30:28;0.40;99.90
16172;DHT22;8192;53.596;10.166;2024-03-08T00:32:56;0.50;99.90
16172;DHT22;8192;53.596;10.166;2024-03-08T00:35:23;0.50;99.90
16172;DHT22;8192;53.596;10.166;2024-03-08T00:37:50;0.60;99.90
16172;DHT22;8192;53.596;10.166;2024-03-08T00:40:18;0.60;99.90
16172;DHT22;8192;53.596;10.166;2024-03-08T00:42:46;0.50;99.90
16172;DHT22;8192;53.596;10.166;2024-03-08T00:45:13;0.40;99.90
16172;DHT22;8192;53.596;10.166;2024-03-08T00:47:40;0.50;99.90
16172;DHT22;8192;53.596;10.166;2024-03-08T00:50:10;0.50;99.90
16172;DHT22;8192;53.596;10.166;2024-03-08T00:52:36;0.60;99.90
16172;DHT22;8192;53.596;10.166;2024-03-08T00:55:04;0.50;99.90
16172;DHT22;8192;53.596;10.166;2024-03-08T00:57:32;0.50;99.90
16172;DHT22;8192;53.596;10.166;2024-03-08T01:00:02;0.50;99.90
16172;DHT22;8192;53.596;10.166;2024-03-08T01:02:29;0.40;99.90
16172;DHT22;8192;53.596;10.166;2024-03-08T01:04:56;0.40;99.90
16172;DHT22;8192;53.596;10.166;2024-03-08T01:07:23;0.40;99.90
16172;DHT22;8192;53.596;10.166;2024-03-08T01:09:50;0.40;99.90
16172;DHT22;8192;53.596;10.166;2024-03-08T01:12:17;0.40;99.90
16172;DHT22;8192;53.596;10.166;2024-03-08T01:14:45;0.40;99.90
16172;DHT22;8192;53.596;10.166;2024-03-08T01:17:12;0.40;99.90
16172;DHT22;8192;53.596;10.166;2024-03-08T01:19:40;0.40;99.90
16172;DHT22;8192;53.596;10.166;2024-03-08T01:22:07;0.40;99.90
16172;DHT22;8192;53.596;10.166;2024-03-08T01:24:33;0.20;99.90
16172;DHT22;8192;53.596;10.166;2024-03-08T01:27:01;0.30;99.90
16172;DHT22;8192;53.596;10.166;2024-03-08T01:29:28;0.30;99.90
16172;DHT22;8192;53.596;10.166;2024-03-08T01:31:59;0.40;99.90
16172;DHT22;8192;53.596;10.166;2024-03-08T01:34:27;0.30;99.90
16172;DHT22;8192;53.596;10.166;2024-03-08T01:36:54;0.20;99.90
16172;DHT22;8192;53.596;10.166;2024-03-08T01:39:22;0.30;99.90
16172;DHT22;8192;53.596;10.166;2024-03-08T01:41:49;0.30;99.90
16172;DHT22;8192;53.596;10.166;2024-03-08T01:44:17;0.20;99.90
16172;DHT22;8192;53.596;10.166;2024-03-08T01:46:44;0.20;99.90
16172;DHT22;8192;53.596;10.166;2024-03-08T01:49:13;0.30;99.90
16172;DHT22;8192;53.596;10.166;2024-03-08T01:51:40;0.30;99.90
16172;DHT22;8192;53.596;10.166;2024-03-08T01:54:08;0.30;99.90
16172;DHT22;8192;53.596;10.166;2024-03-08T01:56:37;0.30;99.90
16172;DHT22;8192;53.596;10.166;2024-03-08T01:59:05;0.30;99.90
16172;DHT22;8192;53.596;10.166;2024-03-08T02:01:33;0.30;99.90
16172;DHT22;8192;53.596;10.166;2024-03-08T02:04:00;0.30;99.90
16172;DHT22;8192;53.596;10.166;2024-03-08T02:06:29;0.20;99.90
16172;DHT22;8192;53.596;10.166;2024-03-08T02:08:57;0.10;99.90
16172;DHT22;8192;53.596;10.166;2024-03-08T02:11:24;0.10;99.90
16172;DHT22;8192;53.596;10.166;2024-03-08T02:13:51;0.10;99.90
16172;DHT22;8192;53.596;10.166;2024-03-08T02:16:20;0.10;99.90
16172;DHT22;8192;53.596;10.166;2024-03-08T02:18:48;0.10;99.90
16172;DHT22;8192;53.596;10.166;2024-03-08T02:21:17;0.10;99.90
16172;DHT22;8192;53.596;10.166;2024-03-08T02:23:46;0.00;99.90
16172;DHT22;8192;53.596;10.166;2024-03-08T02:26:13;0.10;99.90
16172;DHT22;8192;53.596;10.166;2024-03-08T02:28:40;0.00;99.90
16172;DHT22;8192;53.596;10.166;2024-03-08T02:31:08;0.00;99.90
16172;DHT22;8192;53.596;10.166;2024-03-08T02:33:35;-0.20;99.90
16172;DHT22;8192;53.596;10.166;2024-03-08T02:36:02;-0.30;99.90
16172;DHT22;8192;53.596;10.166;2024-03-08T02:38:31;-0.30;99.90
16172;DHT22;8192;53.596;10.166;2024-03-08T02:40:58;-0.40;99.90
16172;DHT22;8192;53.596;10.166;2024-03-08T02:43:25;-0.40;99.90
16172;DHT22;8192;53.596;10.166;2024-03-08T02:45:52;-0.50;99.90
16172;DHT22;8192;53.596;10.166;2024-03-08T02:48:19;-0.40;99.90
16172;DHT22;8192;53.596;10.166;2024-03-08T02:50:47;-0.50;99.90
16172;DHT22;8192;53.596;10.166;2024-03-08T02:53:16;-0.60;99.90
16172;DHT22;8192;53.596;10.166;2024-03-08T02:55:45;-0.70;99.90
16172;DHT22;8192;53.596;10.166;2024-03-08T02:58:13;-0.70;99.90
16172;DHT22;8192;53.596;10.166;2024-03-08T03:00:40;-0.60;99.90
16172;DHT22;8192;53.596;10.166;2024-03-08T03:03:07;-0.60;99.90
16172;DHT22;8192;53.596;10.166;2024-03-08T03:05:34;-0.70;99.90
16172;DHT22;8192;53.596;10.166;2024-03-08T03:08:01;-0.60;99.90
16172;DHT22;8192;53.596;10.166;2024-03-08T03:10:29;-0.50;99.90
16172;DHT22;8192;53.596;10.166;2024-03-08T03:12:58;-0.50;99.90
16172;DHT22;8192;53.596;10.166;2024-03-08T03:15:25;-0.50;99.90
16172;DHT22;8192;53.596;10.166;2024-03-08T03:17:51;-0.50;99.90
16172;DHT22;8192;53.596;10.166;2024-03-08T03:20:19;-0.50;99.90
16172;DHT22;8192;53.596;10.166;2024-03-08T03:22:52;-0.50;99.90
16172;DHT22;8192;53.596;10.166;2024-03-08T03:25:19;-0.50;99.90
16172;DHT22;8192;53.596;10.166;2024-03-08T03:27:51;-0.50;99.90
16172;DHT22;8192;53.596;10.166;2024-03-08T03:30:19;-0.40;99.90
16172;DHT22;8192;53.596;10.166;2024-03-08T03:32:47;-0.40;99.90
16172;DHT22;8192;53.596;10.166;2024-03-08T03:35:15;-0.40;99.90
16172;DHT22;8192;53.596;10.166;2024-03-08T03:37:42;-0.40;99.90
16172;DHT22;8192;53.596;10.166;2024-03-08T03:40:16;-0.30;99.90
16172;DHT22;8192;53.596;10.166;2024-03-08T03:42:45;-0.40;99.90
16172;DHT22;8192;53.596;10.166;2024-03-08T03:45:12;-0.40;99.90
16172;DHT22;8192;53.596;10.166;2024-03-08T03:47:42;-0.30;99.90
16172;DHT22;8192;53.596;10.166;2024-03-08T03:50:09;-0.30;99.90
16172;DHT22;8192;53.596;10.166;2024-03-08T03:52:36;-0.40;99.90
16172;DHT22;8192;53.596;10.166;2024-03-08T03:55:04;-0.40;99.90
16172;DHT22;8192;53.596;10.166;2024-03-08T03:57:31;-0.40;99.90
16172;DHT22;8192;53.596;10.166;2024-03-08T03:59:58;-0.40;99.90
16172;DHT22;8192;53.596;10.166;2024-03-08T04:02:28;-0.50;99.90
16172;DHT22;8192;53.596;10.166;2024-03-08T04:04:56;-0.50;99.90
16172;DHT22;8192;53.596;10.166;2024-03-08T04:07:24;-0.50;99.90
16172;DHT22;8192;53.596;10.166;2024-03-08T04:09:50;-0.50;99.90
16172;DHT22;8192;53.596;10.166;2024-03-08T04:12:17;-0.50;99.90
16172;DHT22;8192;53.596;10.166;2024-03-08T04:14:44;-0.50;99.90
16172;DHT22;8192;53.596;10.166;2024-03-08T04:17:11;-0.50;99.90
16172;DHT22;8192;53.596;10.166;2024-03-08T04:19:38;-0.50;99.90
16172;DHT22;8192;53.596;10.166;2024-03-08T04:22:07;-0.60;99.90
16172;DHT22;8192;53.596;10.166;2024-03-08T04:24:34;-0.60;99.90
16172;DHT22;8192;53.596;10.166;2024-03-08T04:27:01;-0.40;99.90
16172;DHT22;8192;53.596;10.166;2024-03-08T04:29:28;-0.40;99.90
16172;DHT22;8192;53.596;10.166;2024-03-08T04:31:55;-0.40;99.90
16172;DHT22;8192;53.596;10.166;2024-03-08T04:34:22;-0.50;99.90
16172;DHT22;8192;53.596;10.166;2024-03-08T04:36:49;-0.60;99.90
16172;DHT22;8192;53.596;10.166;2024-03-08T04:39:17;-0.70;99.90
16172;DHT22;8192;53.596;10.166;2024-03-08T04:41:45;-0.60;99.90
16172;DHT22;8192;53.596;10.166;2024-03-08T04:44:12;-0.50;99.90
16172;DHT22;8192;53.596;10.166;2024-03-08T04:46:39;-0.50;99.90
16172;DHT22;8192;53.596;10.166;2024-03-08T04:49:06;-0.40;99.90
16172;DHT22;8192;53.596;10.166;2024-03-08T04:51:34;-0.40;99.90
16172;DHT22;8192;53.596;10.166;2024-03-08T04:54:00;-0.50;99.90
16172;DHT22;8192;53.596;10.166;2024-03-08T04:56:29;-0.60;99.90
16172;DHT22;8192;53.596;10.166;2024-03-08T04:58:56;-0.60;99.90
16172;DHT22;8192;53.596;10.166;2024-03-08T05:01:23;-0.60;99.90
16172;DHT22;8192;53.596;10.166;2024-03-08T05:03:50;-0.60;99.90
16172;DHT22;8192;53.596;10.166;2024-03-08T05:06:19;-0.60;99.90
16172;DHT22;8192;53.596;10.166;2024-03-08T05:08:46;-0.60;99.90
16172;DHT22;8192;53.596;10.166;2024-03-08T05:11:13;-0.60;99.90
16172;DHT22;8192;53.596;10.166;2024-03-08T05:13:42;-0.50;99.90
16172;DHT22;8192;53.596;10.166;2024-03-08T05:16:10;-0.50;99.90
16172;DHT22;8192;53.596;10.166;2024-03-08T05:18:38;-0.60;99.90
16172;DHT22;8192;53.596;10.166;2024-03-08T05:21:07;-0.60;99.90
16172;DHT22;8192;53.596;10.166;2024-03-08T05:23:34;-0.70;99.90
16172;DHT22;8192;53.596;10.166;2024-03-08T05:26:01;-0.70;99.90
16172;DHT22;8192;53.596;10.166;2024-03-08T05:28:28;-0.80;99.90
16172;DHT22;8192;53.596;10.166;2024-03-08T05:30:57;-0.80;99.90
16172;DHT22;8192;53.596;10.166;2024-03-08T05:33:23;-0.70;99.90
16172;DHT22;8192;53.596;10.166;2024-03-08T05:35:50;-0.70;99.90
16172;DHT22;8192;53.596;10.166;2024-03-08T05:38:17;-0.80;99.90
16172;DHT22;8192;53.596;10.166;2024-03-08T05:40:45;-0.60;99.90
16172;DHT22;8192;53.596;10.166;2024-03-08T05:43:12;-0.60;99.90
16172;DHT22;8192;53.596;10.166;2024-03-08T05:45:43;-0.60;99.90
16172;DHT22;8192;53.596;10.166;2024-03-08T05:48:11;-0.60;99.90
16172;DHT22;8192;53.596;10.166;2024-03-08T05:50:39;-0.50;99.90
16172;DHT22;8192;53.596;10.166;2024-03-08T05:53:06;-0.50;99.90
16172;DHT22;8192;53.596;10.166;2024-03-08T05:55:33;-0.40;99.90
16172;DHT22;8192;53.596;10.166;2024-03-08T05:58:00;-0.60;99.90
16172;DHT22;8192;53.596;10.166;2024-03-08T06:00:27;-0.60;99.90
16172;DHT22;8192;53.596;10.166;2024-03-08T06:02:56;-0.50;99.90
16172;DHT22;8192;53.596;10.166;2024-03-08T06:05:25;-0.50;99.90
16172;DHT22;8192;53.596;10.166;2024-03-08T06:07:52;-0.50;99.90
16172;DHT22;8192;53.596;10.166;2024-03-08T06:10:20;-0.50;99.90
16172;DHT22;8192;53.596;10.166;2024-03-08T06:12:47;-0.60;99.90
16172;DHT22;8192;53.596;10.166;2024-03-08T06:15:13;-0.40;99.90
16172;DHT22;8192;53.596;10.166;2024-03-08T06:17:41;-0.40;99.90
16172;DHT22;8192;53.596;10.166;2024-03-08T06:20:09;-0.40;99.90
16172;DHT22;8192;53.596;10.166;2024-03-08T06:22:40;-0.50;99.90
16172;DHT22;8192;53.596;10.166;2024-03-08T06:25:07;-0.50;99.90
16172;DHT22;8192;53.596;10.166;2024-03-08T06:27:36;-0.40;99.90
16172;DHT22;8192;53.596;10.166;2024-03-08T06:30:04;-0.40;99.90
16172;DHT22;8192;53.596;10.166;2024-03-08T06:32:31;-0.40;99.90
16172;DHT22;8192;53.596;10.166;2024-03-08T06:35:01;-0.40;99.90
16172;DHT22;8192;53.596;10.166;2024-03-08T06:37:28;-0.30;99.90
16172;DHT22;8192;53.596;10.166;2024-03-08T06:39:58;-0.30;99.90
16172;DHT22;8192;53.596;10.166;2024-03-08T06:42:27;-0.20;99.90
16172;DHT22;8192;53.596;10.166;2024-03-08T06:44:54;-0.20;99.90
16172;DHT22;8192;53.596;10.166;2024-03-08T06:47:28;0.20;99.90
16172;DHT22;8192;53.596;10.166;2024-03-08T06:49:55;0.70;99.90
16172;DHT22;8192;53.596;10.166;2024-03-08T06:52:22;1.10;99.90
16172;DHT22;8192;53.596;10.166;2024-03-08T06:54:49;1.50;99.90
16172;DHT22;8192;53.596;10.166;2024-03-08T06:57:19;1.90;99.90
16172;DHT22;8192;53.596;10.166;2024-03-08T06:59:47;2.20;99.90
16172;DHT22;8192;53.596;10.166;2024-03-08T07:02:16;2.50;99.90
16172;DHT22;8192;53.596;10.166;2024-03-08T07:04:42;2.80;99.90
16172;DHT22;8192;53.596;10.166;2024-03-08T07:07:10;2.90;99.90
16172;DHT22;8192;53.596;10.166;2024-03-08T07:09:40;3.00;99.90
16172;DHT22;8192;53.596;10.166;2024-03-08T07:12:08;3.20;99.90
16172;DHT22;8192;53.596;10.166;2024-03-08T07:14:37;3.20;99.90
16172;DHT22;8192;53.596;10.166;2024-03-08T07:17:06;3.10;99.90
16172;DHT22;8192;53.596;10.166;2024-03-08T07:19:34;3.10;99.90
16172;DHT22;8192;53.596;10.166;2024-03-08T07:22:03;3.30;99.90
16172;DHT22;8192;53.596;10.166;2024-03-08T07:24:34;3.50;99.90
16172;DHT22;8192;53.596;10.166;2024-03-08T07:27:16;3.60;99.90
16172;DHT22;8192;53.596;10.166;2024-03-08T07:29:44;3.80;99.90
16172;DHT22;8192;53.596;10.166;2024-03-08T07:32:11;4.10;99.90
16172;DHT22;8192;53.596;10.166;2024-03-08T07:34:47;4.70;99.90
16172;DHT22;8192;53.596;10.166;2024-03-08T07:37:14;4.70;99.90
16172;DHT22;8192;53.596;10.166;2024-03-08T07:39:41;4.40;99.90
16172;DHT22;8192;53.596;10.166;2024-03-08T07:42:09;3.80;99.90
16172;DHT22;8192;53.596;10.166;2024-03-08T07:44:37;3.10;99.90
16172;DHT22;8192;53.596;10.166;2024-03-08T07:47:06;2.80;99.90
16172;DHT22;8192;53.596;10.166;2024-03-08T07:49:35;2.40;99.90
16172;DHT22;8192;53.596;10.166;2024-03-08T07:52:03;2.20;99.90
16172;DHT22;8192;53.596;10.166;2024-03-08T07:54:32;1.90;99.90
16172;DHT22;8192;53.596;10.166;2024-03-08T07:57:00;1.80;99.90
16172;DHT22;8192;53.596;10.166;2024-03-08T07:59:28;1.80;99.90
16172;DHT22;8192;53.596;10.166;2024-03-08T08:01:56;1.90;99.90
16172;DHT22;8192;53.596;10.166;2024-03-08T08:04:24;2.10;99.90
16172;DHT22;8192;53.596;10.166;2024-03-08T08:06:52;2.10;99.90
16172;DHT22;8192;53.596;10.166;2024-03-08T08:09:20;2.10;99.90
16172;DHT22;8192;53.596;10.166;2024-03-08T08:11:54;2.10;99.90
16172;DHT22;8192;53.596;10.166;2024-03-08T08:14:21;2.20;99.90
16172;DHT22;8192;53.596;10.166;2024-03-08T08:16:48;2.30;99.90
16172;DHT22;8192;53.596;10.166;2024-03-08T08:19:18;2.40;99.90
16172;DHT22;8192;53.596;10.166;2024-03-08T08:21:46;2.50;99.90
16172;DHT22;8192;53.596;10.166;2024-03-08T08:24:15;2.60;99.90
16172;DHT22;8192;53.596;10.166;2024-03-08T08:26:41;2.70;99.90
16172;DHT22;8192;53.596;10.166;2024-03-08T08:29:10;2.80;99.90
16172;DHT22;8192;53.596;10.166;2024-03-08T08:31:37;2.70;99.90
16172;DHT22;8192;53.596;10.166;2024-03-08T08:34:05;2.70;99.90
16172;DHT22;8192;53.596;10.166;2024-03-08T08:36:32;2.70;99.90
16172;DHT22;8192;53.596;10.166;2024-03-08T08:39:04;2.80;99.90
16172;DHT22;8192;53.596;10.166;2024-03-08T08:41:36;2.80;99.90
16172;DHT22;8192;53.596;10.166;2024-03-08T08:44:04;2.90;99.90
16172;DHT22;8192;53.596;10.166;2024-03-08T08:46:35;3.00;99.90
16172;DHT22;8192;53.596;10.166;2024-03-08T08:49:03;3.20;99.90
16172;DHT22;8192;53.596;10.166;2024-03-08T08:51:30;3.40;99.90
16172;DHT22;8192;53.596;10.166;2024-03-08T08:53:59;3.50;99.90
16172;DHT22;8192;53.596;10.166;2024-03-08T08:56:27;3.60;99.90
16172;DHT22;8192;53.596;10.166;2024-03-08T08:58:55;3.50;99.90
16172;DHT22;8192;53.596;10.166;2024-03-08T09:01:23;3.60;99.90
16172;DHT22;8192;53.596;10.166;2024-03-08T09:03:50;3.50;99.90
16172;DHT22;8192;53.596;10.166;2024-03-08T09:06:17;3.50;99.90
16172;DHT22;8192;53.596;10.166;2024-03-08T09:08:44;3.70;99.90
16172;DHT22;8192;53.596;10.166;2024-03-08T09:11:12;3.80;99.90
16172;DHT22;8192;53.596;10.166;2024-03-08T09:13:40;3.80;99.90
16172;DHT22;8192;53.596;10.166;2024-03-08T09:16:09;3.80;99.90
16172;DHT22;8192;53.596;10.166;2024-03-08T09:18:36;3.90;99.90
16172;DHT22;8192;53.596;10.166;2024-03-08T09:21:04;4.00;99.90
16172;DHT22;8192;53.596;10.166;2024-03-08T09:23:35;4.10;99.90
16172;DHT22;8192;53.596;10.166;2024-03-08T09:26:02;4.10;99.90
16172;DHT22;8192;53.596;10.166;2024-03-08T09:28:29;4.00;99.90
16172;DHT22;8192;53.596;10.166;2024-03-08T09:30:58;4.00;99.90
16172;DHT22;8192;53.596;10.166;2024-03-08T09:33:26;4.00;99.90
16172;DHT22;8192;53.596;10.166;2024-03-08T09:35:54;4.00;99.90
16172;DHT22;8192;53.596;10.166;2024-03-08T09:38:23;4.30;99.90
16172;DHT22;8192;53.596;10.166;2024-03-08T09:40:50;4.30;99.90
16172;DHT22;8192;53.596;10.166;2024-03-08T09:43:18;4.50;99.90
16172;DHT22;8192;53.596;10.166;2024-03-08T09:45:49;4.40;99.90
16172;DHT22;8192;53.596;10.166;2024-03-08T09:48:18;4.50;99.90
16172;DHT22;8192;53.596;10.166;2024-03-08T09:50:46;4.60;99.90
16172;DHT22;8192;53.596;10.166;2024-03-08T09:53:13;4.80;99.90
16172;DHT22;8192;53.596;10.166;2024-03-08T09:55:40;4.70;99.90
16172;DHT22;8192;53.596;10.166;2024-03-08T09:58:11;4.70;99.90
16172;DHT22;8192;53.596;10.166;2024-03-08T10:01:04;4.80;99.90
16172;DHT22;8192;53.596;10.166;2024-03-08T10:03:33;4.90;99.90
16172;DHT22;8192;53.596;10.166;2024-03-08T10:06:00;4.80;99.90
16172;DHT22;8192;53.596;10.166;2024-03-08T10:08:27;4.90;99.90
16172;DHT22;8192;53.596;10.166;2024-03-08T10:10:55;5.10;99.90
16172;DHT22;8192;53.596;10.166;2024-03-08T10:13:25;5.30;99.90
16172;DHT22;8192;53.596;10.166;2024-03-08T10:15:52;5.30;99.90
16172;DHT22;8192;53.596;10.166;2024-03-08T10:18:19;5.20;99.90
16172;DHT22;8192;53.596;10.166;2024-03-08T10:21:02;5.30;99.90
16172;DHT22;8192;53.596;10.166;2024-03-08T10:23:31;5.60;99.90
16172;DHT22;8192;53.596;10.166;2024-03-08T10:26:09;5.60;99.90
16172;DHT22;8192;53.596;10.166;2024-03-08T10:28:36;5.60;99.90
16172;DHT22;8192;53.596;10.166;2024-03-08T10:31:04;5.50;99.90
16172;DHT22;8192;53.596;10.166;2024-03-08T10:33:32;5.60;99.90
16172;DHT22;8192;53.596;10.166;2024-03-08T10:36:00;5.80;99.90
16172;DHT22;8192;53.596;10.166;2024-03-08T10:38:31;5.80;99.90
16172;DHT22;8192;53.596;10.166;2024-03-08T10:41:00;5.80;99.90
16172;DHT22;8192;53.596;10.166;2024-03-08T10:43:31;5.90;99.90
16172;DHT22;8192;53.596;10.166;2024-03-08T10:46:11;6.10;99.90
16172;DHT22;8192;53.596;10.166;2024-03-08T10:48:43;6.30;99.90
16172;DHT22;8192;53.596;10.166;2024-03-08T10:51:22;6.20;99.90
16172;DHT22;8192;53.596;10.166;2024-03-08T10:53:51;6.20;99.90
16172;DHT22;8192;53.596;10.166;2024-03-08T10:56:19;6.20;99.90
16172;DHT22;8192;53.596;10.166;2024-03-08T10:58:48;6.30;99.90
16172;DHT22;8192;53.596;10.166;2024-03-08T11:01:16;6.40;99.90
16172;DHT22;8192;53.596;10.166;2024-03-08T11:03:47;6.40;99.90
16172;DHT22;8192;53.596;10.166;2024-03-08T11:06:21;6.40;99.90
16172;DHT22;8192;53.596;10.166;2024-03-08T11:08:50;6.40;99.90
16172;DHT22;8192;53.596;10.166;2024-03-08T11:11:24;6.40;99.90
16172;DHT22;8192;53.596;10.166;2024-03-08T11:13:56;6.60;99.90
16172;DHT22;8192;53.596;10.166;2024-03-08T11:16:47;6.70;99.90
16172;DHT22;8192;53.596;10.166;2024-03-08T11:19:27;6.70;99.90
16172;DHT22;8192;53.596;10.166;2024-03-08T11:21:58;6.60;99.90
16172;DHT22;8192;53.596;10.166;2024-03-08T11:24:26;6.70;99.90
16172;DHT22;8192;53.596;10.166;2024-03-08T11:26:57;6.60;99.90
16172;DHT22;8192;53.596;10.166;2024-03-08T11:29:37;6.70;99.90
16172;DHT22;8192;53.596;10.166;2024-03-08T11:32:08;6.70;99.90
16172;DHT22;8192;53.596;10.166;2024-03-08T11:34:36;6.80;99.90
16172;DHT22;8192;53.596;10.166;2024-03-08T11:37:09;6.80;99.90
16172;DHT22;8192;53.596;10.166;2024-03-08T11:39:39;6.90;99.90
16172;DHT22;8192;53.596;10.166;2024-03-08T11:42:06;7.00;99.90
16172;DHT22;8192;53.596;10.166;2024-03-08T11:44:33;7.10;99.90
16172;DHT22;8192;53.596;10.166;2024-03-08T11:47:01;7.10;99.90
16172;DHT22;8192;53.596;10.166;2024-03-08T11:49:32;7.10;99.90
16172;DHT22;8192;53.596;10.166;2024-03-08T11:52:00;7.00;99.90
16172;DHT22;8192;53.596;10.166;2024-03-08T11:54:28;7.00;99.90
16172;DHT22;8192;53.596;10.166;2024-03-08T11:56:57;7.10;99.90
16172;DHT22;8192;53.596;10.166;2024-03-08T11:59:27;7.20;99.90
16172;DHT22;8192;53.596;10.166;2024-03-08T12:01:59;7.30;99.90
16172;DHT22;8192;53.596;10.166;2024-03-08T12:04:29;7.30;99.90
16172;DHT22;8192;53.596;10.166;2024-03-08T12:06:58;7.30;99.90
16172;DHT22;8192;53.596;10.166;2024-03-08T12:09:27;7.40;99.90
16172;DHT22;8192;53.596;10.166;2024-03-08T12:11:54;7.30;99.90
16172;DHT22;8192;53.596;10.166;2024-03-08T12:14:22;7.30;99.90
16172;DHT22;8192;53.596;10.166;2024-03-08T12:16:51;7.30;99.90
16172;DHT22;8192;53.596;10.166;2024-03-08T12:19:18;7.30;99.90
16172;DHT22;8192;53.596;10.166;2024-03-08T12:21:45;7.40;99.90
16172;DHT22;8192;53.596;10.166;2024-03-08T12:24:15;7.50;99.90
16172;DHT22;8192;53.596;10.166;2024-03-08T12:26:45;7.50;99.90
16172;DHT22;8192;53.596;10.166;2024-03-08T12:29:18;7.60;99.90
16172;DHT22;8192;53.596;10.166;2024-03-08T12:31:51;7.60;99.90
16172;DHT22;8192;53.596;10.166;2024-03-08T12:34:18;7.60;99.90
16172;DHT22;8192;53.596;10.166;2024-03-08T12:36:46;7.70;99.90
16172;DHT22;8192;53.596;10.166;2024-03-08T12:39:18;7.70;99.90
16172;DHT22;8192;53.596;10.166;2024-03-08T12:41:48;7.70;99.90
16172;DHT22;8192;53.596;10.166;2024-03-08T12:44:17;7.80;99.90
16172;DHT22;8192;53.596;10.166;2024-03-08T12:46:44;7.80;99.90
16172;DHT22;8192;53.596;10.166;2024-03-08T12:49:13;7.60;99.90
16172;DHT22;8192;53.596;10.166;2024-03-08T12:51:43;7.70;99.90
16172;DHT22;8192;53.596;10.166;2024-03-08T12:54:10;7.80;99.90
16172;DHT22;8192;53.596;10.166;2024-03-08T12:56:37;7.80;99.90
16172;DHT22;8192;53.596;10.166;2024-03-08T12:59:06;8.00;99.90
16172;DHT22;8192;53.596;10.166;2024-03-08T13:01:34;8.10;99.90
16172;DHT22;8192;53.596;10.166;2024-03-08T13:04:03;8.10;99.90
16172;DHT22;8192;53.596;10.166;2024-03-08T13:06:33;8.10;99.90
16172;DHT22;8192;53.596;10.166;2024-03-08T13:09:00;8.20;99.90
16172;DHT22;8192;53.596;10.166;2024-03-08T13:11:31;8.20;99.90
16172;DHT22;8192;53.596;10.166;2024-03-08T13:14:02;8.10;99.90
16172;DHT22;8192;53.596;10.166;2024-03-08T13:16:30;8.00;99.90
16172;DHT22;8192;53.596;10.166;2024-03-08T13:19:00;8.10;99.90
16172;DHT22;8192;53.596;10.166;2024-03-08T13:21:27;8.10;99.90
16172;DHT22;8192;53.596;10.166;2024-03-08T13:23:57;8.10;99.90
16172;DHT22;8192;53.596;10.166;2024-03-08T13:26:26;8.10;99.90
16172;DHT22;8192;53.596;10.166;2024-03-08T13:28:58;8.20;99.90
16172;DHT22;8192;53.596;10.166;2024-03-08T13:31:25;8.30;99.60
16172;DHT22;8192;53.596;10.166;2024-03-08T13:33:52;8.50;99.90
16172;DHT22;8192;53.596;10.166;2024-03-08T13:36:23;8.50;98.70
16172;DHT22;8192;53.596;10.166;2024-03-08T13:38:54;8.30;98.50
16172;DHT22;8192;53.596;10.166;2024-03-08T13:41:23;8.30;99.20
16172;DHT22;8192;53.596;10.166;2024-03-08T13:43:50;8.30;99.30
16172;DHT22;8192;53.596;10.166;2024-03-08T13:46:17;8.40;98.50
16172;DHT22;8192;53.596;10.166;2024-03-08T13:48:44;8.40;98.00
16172;DHT22;8192;53.596;10.166;2024-03-08T13:51:11;8.50;98.10
16172;DHT22;8192;53.596;10.166;2024-03-08T13:53:41;8.80;97.10
16172;DHT22;8192;53.596;10.166;2024-03-08T13:56:08;8.90;96.20
16172;DHT22;8192;53.596;10.166;2024-03-08T13:58:37;8.80;97.30
16172;DHT22;8192;53.596;10.166;2024-03-08T14:01:06;8.70;96.50
16172;DHT22;8192;53.596;10.166;2024-03-08T14:03:37;8.80;96.20
16172;DHT22;8192;53.596;10.166;2024-03-08T14:06:04;8.80;96.40
16172;DHT22;8192;53.596;10.166;2024-03-08T14:08:32;8.70;99.30
16172;DHT22;8192;53.596;10.166;2024-03-08T14:10:59;8.60;99.90
16172;DHT22;8192;53.596;10.166;2024-03-08T14:13:40;8.60;99.90
16172;DHT22;8192;53.596;10.166;2024-03-08T14:16:08;8.70;99.90
16172;DHT22;8192;53.596;10.166;2024-03-08T14:18:36;8.80;99.90
16172;DHT22;8192;53.596;10.166;2024-03-08T14:21:03;8.80;99.90
16172;DHT22;8192;53.596;10.166;2024-03-08T14:23:31;8.80;99.90
16172;DHT22;8192;53.596;10.166;2024-03-08T14:25:58;8.90;99.90
16172;DHT22;8192;53.596;10.166;2024-03-08T14:28:25;8.70;99.90
16172;DHT22;8192;53.596;10.166;2024-03-08T14:30:54;8.80;99.90
16172;DHT22;8192;53.596;10.166;2024-03-08T14:33:21;8.90;99.90
16172;DHT22;8192;53.596;10.166;2024-03-08T14:35:51;8.90;99.90
16172;DHT22;8192;53.596;10.166;2024-03-08T14:38:18;9.00;99.90
16172;DHT22;8192;53.596;10.166;2024-03-08T14:40:46;9.00;99.90
16172;DHT22;8192;53.596;10.166;2024-03-08T14:43:13;9.10;99.90
16172;DHT22;8192;53.596;10.166;2024-03-08T14:45:40;9.00;99.90
16172;DHT22;8192;53.596;10.166;2024-03-08T14:48:09;9.10;99.90
16172;DHT22;8192;53.596;10.166;2024-03-08T14:50:37;9.40;99.90
16172;DHT22;8192;53.596;10.166;2024-03-08T14:53:04;9.40;99.70
16172;DHT22;8192;53.596;10.166;2024-03-08T14:55:32;9.60;98.40
16172;DHT22;8192;53.596;10.166;2024-03-08T14:58:00;9.50;99.00
16172;DHT22;8192;53.596;10.166;2024-03-08T15:00:27;9.50;98.50
16172;DHT22;8192;53.596;10.166;2024-03-08T15:02:59;9.60;97.60
16172;DHT22;8192;53.596;10.166;2024-03-08T15:05:28;9.50;97.70
16172;DHT22;8192;53.596;10.166;2024-03-08T15:07:57;9.40;97.50
16172;DHT22;8192;53.596;10.166;2024-03-08T15:10:26;9.30;97.80
16172;DHT22;8192;53.596;10.166;2024-03-08T15:12:54;9.20;97.50
16172;DHT22;8192;53.596;10.166;2024-03-08T15:15:25;9.00;97.80
16172;DHT22;8192;53.596;10.166;2024-03-08T15:17:52;8.90;97.60
16172;DHT22;8192;53.596;10.166;2024-03-08T15:20:22;8.80;97.30
16172;DHT22;8192;53.596;10.166;2024-03-08T15:22:52;8.60;98.20
16172;DHT22;8192;53.596;10.166;2024-03-08T15:25:20;8.60;99.10
16172;DHT22;8192;53.596;10.166;2024-03-08T15:27:51;8.60;98.60
16172;DHT22;8192;53.596;10.166;2024-03-08T15:30:18;8.60;99.00
16172;DHT22;8192;53.596;10.166;2024-03-08T15:32:48;8.50;98.50
16172;DHT22;8192;53.596;10.166;2024-03-08T15:35:16;8.50;98.70
16172;DHT22;8192;53.596;10.166;2024-03-08T15:37:44;8.50;99.30
16172;DHT22;8192;53.596;10.166;2024-03-08T15:40:14;8.40;99.80
16172;DHT22;8192;53.596;10.166;2024-03-08T15:42:54;8.50;99.60
16172;DHT22;8192;53.596;10.166;2024-03-08T15:45:21;8.50;99.90
16172;DHT22;8192;53.596;10.166;2024-03-08T15:47:49;8.60;99.50
16172;DHT22;8192;53.596;10.166;2024-03-08T15:50:16;8.70;99.50